Elko, Canada
Current Conditions -  °F | °C
As of 7:25 AM on Saturday 22 Nov 2014 (Local Time) from CYXC Reporting Station
Moderate Fog Moderate Fog  
Wind Chill: -5°   Ceiling: 7000
Heat Index: -1°   Visibility: 0.25mi
Dew Point: -1°   Wind: 8mph
Humidity: 100%   Direction: NA
Pressure: 29.28"   Gusts: NA
Location:  49.3°N, 115.12°W
Report Text: CYXC 221425Z VRB07KT 1/4SM FZFG BKN070 M01/M01 A2928 RMK FG3AC2 SLP938
Loading
Personal Weather Stations






























Interactive Weather Map New forecast layout! Learn more

10-Day Weather Forecast

Advertisements
Track Severe Weather on mobile